This is the latest recevied weather packets stored in our database for station/object KF7SOJ. If no packets are shown the sender has not sent any weather packets the latest 1 day(s).
| Time | Temp. | Humidity | Pressure | Rain* | Wind** | Luminosity | Snow |
|---|---|---|---|---|---|---|---|
| 1778033124 | 6.11° C | 36% | 933.8 hPa | 0 mm | 3.13 m/s, 73° | 17 W/m² | - |
| 1778032821 | 6.67° C | 36% | 933.9 hPa | 0 mm | 2.68 m/s, 69° | 20 W/m² | - |
| 1778032519 | 6.67° C | 36% | 933.7 hPa | 0 mm | 4.02 m/s, 61° | 24 W/m² | - |
| 1778032216 | 6.67° C | 35% | 933.8 hPa | 0 mm | 3.58 m/s, 62° | 30 W/m² | - |
| 1778031913 | 7.22° C | 34% | 933.8 hPa | 0 mm | 3.58 m/s, 40° | 33 W/m² | - |
| 1778031609 | 7.22° C | 35% | 933.8 hPa | 0 mm | 4.92 m/s, 59° | 38 W/m² | - |
| 1778031307 | 7.78° C | 32% | 933.8 hPa | 0 mm | 4.92 m/s, 12° | 64 W/m² | - |
| 1778031003 | 7.78° C | 32% | 933.8 hPa | 0 mm | 4.92 m/s, 12° | 64 W/m² | - |
| 1778030699 | 7.78° C | 32% | 933.7 hPa | 0 mm | 4.02 m/s, 21° | 78 W/m² | - |
| 1778030397 | 7.78° C | 32% | 933.9 hPa | 0 mm | 5.36 m/s, 38° | 90 W/m² | - |
| 1778030094 | 7.78° C | 32% | 933.7 hPa | 0 mm | 5.81 m/s, 33° | 97 W/m² | - |
| 1778029790 | 8.33° C | 32% | 933.7 hPa | 0 mm | 5.36 m/s, 24° | 55 W/m² | - |
| 1778029490 | 8.33° C | 32% | 933.5 hPa | 0 mm | 7.15 m/s, 33° | 129 W/m² | - |
| 1778029185 | 8.89° C | 32% | 933.5 hPa | 0 mm | 4.02 m/s, 32° | 169 W/m² | - |
| 1778028883 | 8.89° C | 32% | 933.6 hPa | 0 mm | 4.02 m/s, 32° | 169 W/m² | - |
| 1778028578 | 8.89° C | 32% | 933.6 hPa | 0 mm | 2.68 m/s, 16° | 175 W/m² | - |
| 1778028277 | 8.89° C | 32% | 933.3 hPa | 0 mm | 5.36 m/s, 20° | 213 W/m² | - |
| 1778027972 | 8.89° C | 32% | 933.5 hPa | 0 mm | 5.81 m/s, 27° | 208 W/m² | - |
| 1778027669 | 8.33° C | 32% | 933.3 hPa | 0 mm | 6.71 m/s, 39° | 221 W/m² | - |
| 1778027365 | 8.89° C | 32% | 933.4 hPa | 0 mm | 4.92 m/s, 22° | 80 W/m² | - |
| 1778027061 | 8.89° C | 31% | 933.3 hPa | 0 mm | 6.26 m/s, 16° | 256 W/m² | - |
| 1778026757 | 8.89° C | 31% | 933.3 hPa | 0 mm | 6.26 m/s, 22° | 287 W/m² | - |
| 1778026454 | 8.89° C | 33% | 933.3 hPa | 0 mm | 3.58 m/s, 31° | 301 W/m² | - |
| 1778026151 | 8.89° C | 31% | 933.3 hPa | 0 mm | 5.81 m/s, 32° | 346 W/m² | - |
| 1778025849 | 9.44° C | 31% | 933.1 hPa | 0 mm | 8.05 m/s, 23° | 380 W/m² | - |
* Rain latest hour (hover to see other rain measurements)
** Current wind speed in m/s (hover to see current wind gust speed)